createdAt,value
2018-05-02T05:40:28.764Z,5.10
2018-05-02T05:42:54.409Z,4.87
2018-05-02T05:45:19.988Z,5.40
2018-05-02T05:47:46.197Z,4.80
2018-05-02T05:50:13.149Z,5.13
2018-05-02T05:52:38.731Z,5.00
2018-05-02T05:55:04.915Z,4.70
2018-05-02T05:57:30.578Z,5.10
2018-05-02T05:59:56.146Z,4.87
2018-05-02T06:02:22.429Z,4.30
2018-05-02T06:04:48.078Z,4.53
2018-05-02T06:07:13.662Z,3.93
2018-05-02T06:09:39.343Z,4.73
2018-05-02T06:12:04.903Z,5.00
2018-05-02T06:14:30.538Z,4.70
2018-05-02T06:16:56.628Z,4.27
2018-05-02T06:19:22.301Z,5.10
2018-05-02T06:21:48.163Z,4.77
2018-05-02T06:24:13.740Z,6.07
2018-05-02T06:26:39.395Z,7.30
2018-05-02T06:29:05.169Z,10.10
2018-05-02T06:31:30.796Z,8.17
2018-05-02T06:33:56.431Z,8.70
2018-05-02T06:36:22.156Z,6.37
2018-05-02T06:38:47.745Z,6.13
2018-05-02T06:41:13.574Z,6.00
2018-05-02T06:43:39.341Z,5.10
2018-05-02T06:46:04.942Z,5.00
2018-05-02T06:48:30.523Z,5.00
2018-05-02T06:50:56.714Z,4.93
2018-05-02T06:53:22.288Z,4.60
2018-05-02T06:55:47.837Z,4.77
2018-05-02T06:58:13.665Z,4.30
2018-05-02T07:00:39.441Z,4.80
2018-05-02T07:03:05.054Z,4.43
2018-05-02T07:05:30.903Z,4.77
2018-05-02T07:07:56.476Z,4.57
2018-05-02T07:10:22.149Z,4.57
2018-05-02T07:12:47.936Z,4.63
2018-05-02T07:15:13.493Z,4.57
2018-05-02T07:17:39.153Z,4.63
2018-05-02T07:20:04.960Z,4.63
2018-05-02T07:22:30.853Z,4.70
2018-05-02T07:24:56.435Z,4.20
2018-05-02T07:27:22.304Z,4.53
2018-05-02T07:29:47.928Z,4.83
2018-05-02T07:32:13.487Z,4.63
2018-05-02T07:34:39.537Z,4.63
2018-05-02T07:37:05.464Z,5.23
2018-05-02T07:39:31.083Z,5.73
2018-05-02T07:41:56.929Z,5.70
2018-05-02T07:44:22.482Z,5.20
2018-05-02T07:46:48.093Z,4.77
2018-05-02T07:49:13.911Z,4.53
2018-05-02T07:51:39.475Z,4.67
2018-05-02T07:54:05.029Z,4.77
2018-05-02T07:56:30.869Z,4.20
2018-05-02T07:58:56.683Z,4.27
2018-05-02T08:01:22.239Z,5.30
2018-05-02T08:03:48.016Z,4.07
2018-05-02T08:06:13.866Z,4.60
2018-05-02T08:08:39.469Z,4.87
2018-05-02T08:11:05.403Z,4.70
2018-05-02T08:13:30.969Z,4.70
2018-05-02T08:15:56.532Z,4.20
2018-05-02T08:18:22.328Z,4.33
2018-05-02T08:20:47.964Z,4.47
2018-05-02T08:23:13.716Z,3.93
2018-05-02T08:25:39.531Z,3.80
2018-05-02T08:28:06.566Z,4.40
2018-05-02T08:30:32.161Z,5.00
2018-05-02T08:32:58.000Z,4.03
2018-05-02T08:35:23.496Z,3.80
2018-05-02T08:37:49.109Z,4.10
2018-05-02T08:40:14.827Z,4.23
2018-05-02T08:42:40.406Z,4.30
2018-05-02T08:45:05.963Z,4.30
2018-05-02T08:47:31.813Z,4.57
2018-05-02T08:49:57.474Z,5.10
2018-05-02T08:52:23.307Z,5.50
2018-05-02T08:54:49.136Z,4.10
2018-05-02T08:57:14.745Z,4.00
2018-05-02T08:59:40.323Z,4.50
2018-05-02T09:02:06.069Z,4.50
2018-05-02T09:04:31.707Z,4.50
2018-05-02T09:06:57.265Z,5.30
2018-05-02T09:09:23.097Z,4.37
2018-05-02T09:11:48.926Z,4.30
2018-05-02T09:14:14.507Z,4.77
2018-05-02T09:16:40.358Z,4.33
2018-05-02T09:19:05.930Z,4.47
2018-05-02T09:21:31.553Z,4.60
2018-05-02T09:23:57.301Z,4.27
2018-05-02T09:26:24.258Z,3.90
2018-05-02T09:28:49.821Z,4.20
2018-05-02T09:31:15.612Z,4.37
2018-05-02T09:33:41.413Z,4.20
2018-05-02T09:36:06.981Z,3.90
2018-05-02T09:38:32.889Z,4.03
2018-05-02T09:40:58.434Z,5.28
2018-05-02T09:43:24.167Z,5.03
2018-05-02T09:45:49.780Z,4.03
2018-05-02T09:48:15.346Z,4.00
2018-05-02T09:50:41.196Z,4.40
2018-05-02T09:53:06.761Z,4.20
2018-05-02T09:55:32.324Z,3.87
2018-05-02T09:57:58.120Z,4.53
2018-05-02T10:04:04.949Z,4.20
2018-05-02T10:06:30.521Z,4.10
2018-05-02T10:08:56.087Z,4.40
2018-05-02T10:11:21.882Z,4.23
2018-05-02T10:13:47.534Z,4.07
2018-05-02T10:16:13.115Z,3.50
2018-05-02T10:18:38.881Z,3.50
2018-05-02T10:21:04.504Z,3.90
2018-05-02T10:23:30.302Z,4.07
2018-05-02T10:25:56.035Z,3.83
2018-05-02T10:28:21.645Z,4.00
2018-05-02T10:30:47.203Z,3.70
2018-05-02T10:33:12.968Z,4.07
2018-05-02T10:35:38.577Z,4.17
2018-05-02T10:38:04.132Z,3.73
2018-05-02T10:40:29.964Z,3.70
2018-05-02T10:42:55.727Z,3.60
2018-05-02T10:45:21.305Z,3.70
2018-05-02T10:47:47.057Z,3.77
2018-05-02T10:52:56.574Z,3.47
2018-05-02T10:55:22.194Z,3.67
2018-05-02T10:57:47.808Z,3.50
2018-05-02T11:00:13.726Z,3.57
2018-05-02T11:02:39.349Z,3.40
2018-05-02T11:05:05.040Z,3.23
2018-05-02T11:07:30.906Z,3.17
2018-05-02T11:09:56.655Z,3.70
2018-05-02T11:12:22.494Z,3.17
2018-05-02T11:14:48.358Z,3.20
2018-05-02T11:17:14.057Z,3.17
2018-05-02T11:19:39.674Z,3.00
2018-05-02T11:22:05.635Z,3.00
2018-05-02T11:24:31.226Z,3.50
2018-05-02T11:26:57.063Z,3.10
2018-05-02T11:29:22.996Z,2.70
2018-05-02T11:31:48.604Z,2.63
2018-05-02T11:34:14.249Z,3.27
2018-05-02T11:36:40.208Z,2.87
2018-05-02T11:39:05.827Z,2.77
2018-05-02T11:41:31.642Z,2.83
2018-05-02T11:43:57.261Z,2.90
2018-05-02T11:46:23.172Z,3.37
2018-05-02T11:48:48.786Z,2.83
2018-05-02T11:51:14.496Z,2.97
2018-05-02T11:53:40.292Z,2.77
2018-05-02T11:56:05.999Z,2.87
2018-05-02T11:58:31.624Z,2.80
2018-05-02T12:00:57.474Z,3.60
2018-05-02T12:03:23.106Z,5.90
2018-05-02T12:05:48.927Z,5.90
2018-05-02T12:08:14.703Z,6.00
2018-05-02T12:10:40.354Z,5.87
2018-05-02T12:13:06.045Z,5.80
2018-05-02T12:15:31.848Z,5.40
2018-05-02T12:17:57.762Z,5.87
2018-05-02T12:20:23.404Z,5.63
2018-05-02T12:22:49.158Z,6.03
2018-05-02T12:25:14.777Z,7.03
2018-05-02T12:27:40.762Z,6.33
2018-05-02T12:30:06.529Z,6.17
2018-05-02T12:32:32.124Z,6.00
2018-05-02T12:34:57.744Z,6.23
2018-05-02T12:37:23.712Z,6.07
2018-05-02T12:39:49.330Z,7.03
2018-05-02T12:42:14.949Z,6.47
2018-05-02T12:44:40.807Z,7.70
2018-05-02T12:47:06.501Z,6.77
2018-05-02T12:49:32.450Z,6.57
2018-05-02T12:51:58.316Z,6.43
2018-05-02T12:54:23.941Z,6.00
2018-05-02T12:56:49.570Z,6.07
2018-05-02T12:59:15.359Z,6.27
2018-05-02T13:01:41.192Z,6.60
2018-05-02T13:04:07.217Z,6.47
2018-05-02T13:06:33.340Z,6.00
2018-05-02T13:08:58.940Z,5.60
2018-05-02T13:11:24.566Z,6.40
2018-05-02T13:13:50.452Z,6.67
2018-05-02T13:16:16.387Z,5.00
2018-05-02T13:18:42.030Z,5.30
2018-05-02T13:21:07.854Z,5.37
2018-05-02T13:23:33.467Z,4.93
2018-05-02T13:25:59.165Z,4.57
2018-05-02T13:28:25.027Z,4.63
2018-05-02T13:30:50.659Z,4.87
2018-05-02T13:33:16.358Z,4.80
2018-05-02T13:35:42.172Z,5.23
2018-05-02T13:38:07.854Z,4.87
2018-05-02T13:40:33.469Z,4.57
2018-05-02T13:42:59.328Z,3.87
2018-05-02T13:45:25.218Z,4.43
2018-05-02T13:47:50.835Z,4.33
2018-05-02T13:50:16.559Z,4.20
2018-05-02T13:52:42.317Z,4.60
2018-05-02T13:55:08.351Z,3.73
2018-05-02T13:57:33.961Z,4.33
2018-05-02T13:59:59.594Z,3.57
2018-05-02T14:02:25.417Z,3.80
2018-05-02T14:04:51.111Z,3.57
2018-05-02T14:07:16.670Z,3.37
2018-05-02T14:09:42.468Z,3.30
2018-05-02T14:12:08.040Z,3.47
2018-05-02T14:14:33.650Z,3.40
2018-05-02T14:16:59.504Z,3.30
2018-05-02T14:19:25.071Z,3.00
2018-05-02T14:21:50.654Z,3.47
2018-05-02T14:24:16.415Z,3.62
2018-05-02T14:26:41.990Z,3.40
2018-05-02T14:29:07.565Z,3.10
2018-05-02T14:31:33.919Z,3.00
2018-05-02T14:33:59.747Z,3.10
2018-05-02T14:36:25.395Z,3.20
2018-05-02T14:38:51.326Z,3.00
2018-05-02T14:41:16.893Z,3.17
2018-05-02T14:43:42.705Z,3.07
2018-05-02T14:46:08.489Z,2.67
2018-05-02T14:48:34.084Z,2.80
2018-05-02T14:50:59.713Z,3.10
2018-05-02T14:53:25.521Z,2.87
2018-05-02T14:55:51.096Z,3.10
2018-05-02T14:58:16.668Z,3.93
2018-05-02T15:00:42.526Z,3.07
2018-05-02T15:03:08.287Z,3.70
2018-05-02T15:05:33.869Z,3.73
2018-05-02T15:07:59.737Z,3.57
2018-05-02T15:10:25.302Z,4.00
2018-05-02T15:12:50.888Z,3.73
2018-05-02T15:15:16.620Z,3.60
2018-05-02T15:17:42.242Z,3.70
2018-05-02T15:20:07.858Z,3.50
2018-05-02T15:22:33.597Z,4.13
2018-05-02T15:24:59.333Z,3.80
2018-05-02T15:27:24.906Z,3.63
2018-05-02T15:29:50.750Z,3.93
2018-05-02T15:32:16.375Z,3.60
2018-05-02T15:34:41.994Z,2.97
2018-05-02T15:37:07.817Z,3.27
2018-05-02T15:39:33.411Z,3.53
2018-05-02T15:41:59.073Z,3.43
2018-05-02T15:44:24.919Z,3.40
2018-05-02T15:46:50.494Z,3.70
2018-05-02T15:49:16.231Z,4.07
2018-05-02T15:51:41.950Z,3.23
2018-05-02T15:54:07.512Z,3.70
2018-05-02T15:56:33.075Z,3.97
2018-05-02T15:58:58.803Z,4.03
2018-05-02T16:01:24.356Z,3.00
2018-05-02T16:03:50.223Z,3.20
2018-05-02T16:06:16.055Z,3.20
2018-05-02T16:08:41.601Z,2.70
2018-05-02T16:11:07.983Z,2.90
2018-05-02T16:13:33.793Z,2.77
2018-05-02T16:15:59.365Z,3.13
2018-05-02T16:18:24.937Z,2.87
2018-05-02T16:20:51.693Z,3.70
2018-05-02T16:23:17.263Z,3.17
2018-05-02T16:25:42.925Z,3.33
2018-05-02T16:28:08.909Z,2.90
2018-05-02T16:30:34.469Z,3.00
2018-05-02T16:33:00.188Z,3.37
2018-05-02T16:35:25.725Z,2.87
2018-05-02T16:37:51.680Z,3.23
2018-05-02T16:40:17.305Z,2.63
2018-05-02T16:42:43.042Z,3.33
2018-05-02T16:45:08.696Z,3.23
2018-05-02T16:47:34.222Z,3.70
2018-05-02T16:49:59.940Z,3.40
2018-05-02T16:52:25.521Z,3.10
2018-05-02T16:54:51.090Z,3.47
2018-05-02T16:57:17.067Z,4.28
2018-05-02T16:59:42.639Z,3.50
2018-05-02T17:02:08.424Z,3.73
2018-05-02T17:04:34.255Z,3.10
2018-05-02T17:06:59.855Z,3.20
2018-05-02T17:09:25.460Z,3.20
2018-05-02T17:11:51.328Z,3.83
2018-05-02T17:14:16.985Z,3.70
2018-05-02T17:16:42.662Z,3.20
2018-05-02T17:19:08.511Z,3.50
2018-05-02T17:21:34.081Z,3.10
2018-05-02T17:23:59.654Z,3.30
2018-05-02T17:26:25.372Z,3.83
2018-05-02T17:28:50.987Z,3.27
2018-05-02T17:31:16.819Z,3.00
2018-05-02T17:33:42.674Z,3.17
2018-05-02T17:36:08.294Z,3.13
2018-05-02T17:38:34.177Z,3.87
2018-05-02T17:40:59.993Z,3.33
2018-05-02T17:43:25.520Z,3.00
2018-05-02T17:45:52.595Z,3.07
2018-05-02T17:48:18.179Z,2.70
2018-05-02T17:50:44.340Z,2.97
2018-05-02T17:53:09.934Z,2.90
2018-05-02T17:55:35.683Z,3.13
2018-05-02T17:58:01.771Z,2.73
2018-05-02T18:00:27.396Z,2.83
2018-05-02T18:02:52.957Z,3.10
2018-05-02T18:05:18.731Z,2.83
2018-05-02T18:07:44.324Z,3.20
2018-05-02T18:10:09.902Z,3.27
2018-05-02T18:12:35.769Z,3.07
2018-05-02T18:15:01.431Z,2.73
2018-05-02T18:17:27.041Z,3.40
2018-05-02T18:19:52.749Z,3.20
2018-05-02T18:22:18.350Z,2.83
2018-05-02T18:24:43.978Z,3.50
2018-05-02T18:27:09.785Z,3.10
2018-05-02T18:29:35.405Z,3.30
2018-05-02T18:32:00.983Z,2.97
2018-05-02T18:34:27.118Z,3.00
2018-05-02T18:36:52.669Z,3.00
2018-05-02T18:39:18.336Z,2.70
2018-05-02T18:41:44.343Z,3.10
2018-05-02T18:44:09.973Z,3.13
2018-05-02T18:46:35.564Z,2.57
2018-05-02T18:49:02.069Z,3.17
2018-05-02T18:51:28.357Z,2.73
2018-05-02T18:53:53.935Z,2.60
2018-05-02T18:56:20.436Z,2.67
2018-05-02T18:58:46.071Z,2.67
2018-05-02T19:02:44.608Z,2.80
2018-05-02T19:05:10.245Z,2.63
2018-05-02T19:07:35.850Z,2.90
2018-05-02T19:10:01.974Z,2.53
2018-05-02T19:12:27.591Z,2.60
2018-05-02T19:14:53.227Z,2.97
2018-05-02T19:17:19.601Z,3.07
2018-05-02T19:20:04.109Z,2.73
2018-05-02T19:22:30.472Z,3.30
2018-05-02T19:25:15.693Z,2.67
2018-05-02T19:27:41.648Z,2.70
2018-05-02T19:30:07.227Z,3.60
2018-05-02T19:32:52.288Z,3.20
2018-05-02T19:35:17.898Z,2.50
2018-05-02T19:37:43.512Z,2.87
2018-05-02T19:40:28.106Z,2.73
2018-05-02T19:43:12.662Z,2.73
2018-05-02T19:45:39.825Z,2.80
2018-05-02T19:48:05.407Z,2.83
2018-05-02T19:50:31.052Z,2.40
2018-05-02T19:52:57.125Z,2.50
2018-05-02T19:55:22.707Z,2.60
2018-05-02T19:57:48.606Z,2.53
2018-05-02T20:00:33.719Z,3.08
2018-05-02T20:03:02.318Z,2.90
2018-05-02T20:05:27.954Z,3.10
2018-05-02T20:07:53.967Z,3.00
2018-05-02T20:10:38.118Z,2.97
2018-05-02T20:13:23.135Z,2.73
2018-05-02T20:15:48.707Z,2.90
2018-05-02T20:18:14.290Z,3.10
2018-05-02T20:20:40.277Z,2.77
2018-05-02T20:23:06.390Z,2.77
2018-05-02T20:25:32.015Z,2.87
2018-05-02T20:27:58.321Z,2.63
2018-05-02T20:30:24.612Z,2.60
2018-05-02T20:35:22.305Z,2.80
2018-05-02T20:37:48.403Z,2.85
2018-05-02T20:40:13.968Z,2.53
2018-05-02T20:42:39.605Z,2.60
2018-05-02T20:45:05.321Z,2.53
2018-05-02T20:47:30.938Z,3.03
2018-05-02T20:49:56.470Z,2.70
2018-05-02T20:52:22.178Z,2.73
2018-05-02T20:54:47.840Z,2.50
2018-05-02T20:57:13.377Z,3.03
2018-05-02T20:59:39.488Z,2.50
2018-05-02T21:02:05.056Z,3.33
2018-05-02T21:04:30.633Z,3.07
2018-05-02T21:06:56.342Z,2.40
2018-05-02T21:09:21.982Z,2.83
2018-05-02T21:11:47.557Z,3.00
2018-05-02T21:14:13.257Z,3.10
2018-05-02T21:16:38.893Z,3.10
2018-05-02T21:19:04.484Z,2.80
2018-05-02T21:21:30.246Z,3.22
2018-05-02T21:23:57.100Z,2.80
2018-05-02T21:26:22.760Z,3.20
2018-05-02T21:28:48.430Z,3.93
2018-05-02T21:31:14.206Z,4.37
2018-05-02T21:33:39.960Z,3.60
2018-05-02T21:36:05.524Z,3.50
2018-05-02T21:38:31.305Z,3.47
2018-05-02T21:40:56.871Z,3.27
2018-05-02T21:43:22.438Z,3.93
2018-05-02T21:45:48.202Z,3.77
2018-05-02T21:48:13.824Z,3.33
2018-05-02T21:50:39.463Z,3.50
2018-05-02T21:53:05.303Z,3.57
2018-05-02T21:55:30.872Z,3.40
2018-05-02T21:57:56.619Z,3.77
2018-05-02T22:00:22.328Z,4.30
2018-05-02T22:02:47.903Z,3.43
2018-05-02T22:05:13.631Z,4.20
2018-05-02T22:07:39.335Z,3.60
2018-05-02T22:10:04.957Z,3.60
2018-05-02T22:12:30.729Z,3.67
2018-05-02T22:14:56.515Z,4.10
2018-05-02T22:17:22.057Z,4.13
2018-05-02T22:19:47.636Z,4.10
2018-05-02T22:22:13.465Z,4.07
2018-05-02T22:24:39.062Z,3.73
2018-05-02T22:27:04.649Z,4.10
2018-05-02T22:29:30.369Z,3.80
2018-05-02T22:31:55.941Z,4.60
2018-05-02T22:34:21.781Z,4.33
2018-05-02T22:36:47.355Z,4.07
2018-05-02T22:39:13.171Z,4.30
2018-05-02T22:41:38.928Z,4.03
2018-05-02T22:44:04.497Z,4.30
2018-05-02T22:46:30.167Z,4.13
2018-05-02T22:48:55.969Z,3.70
2018-05-02T22:51:21.641Z,4.40
2018-05-02T22:53:47.215Z,4.00
2018-05-02T22:56:12.982Z,3.87
2018-05-02T22:58:38.591Z,3.80
2018-05-02T23:01:04.398Z,4.10
2018-05-02T23:03:30.159Z,3.80
2018-05-02T23:05:56.258Z,4.10
2018-05-02T23:08:21.835Z,4.33
2018-05-02T23:10:47.632Z,4.10
2018-05-02T23:13:13.237Z,3.73
2018-05-02T23:15:38.804Z,4.67
2018-05-02T23:18:04.613Z,3.83
2018-05-02T23:20:30.332Z,4.83
2018-05-02T23:22:55.953Z,4.77
2018-05-02T23:25:21.736Z,5.57
2018-05-02T23:27:47.298Z,5.47
2018-05-02T23:30:13.022Z,4.83
2018-05-02T23:32:38.795Z,4.70
2018-05-02T23:35:04.359Z,4.90
2018-05-02T23:37:29.942Z,5.03
2018-05-02T23:39:55.689Z,5.10
2018-05-02T23:42:21.316Z,4.23
2018-05-02T23:44:46.984Z,4.70
2018-05-02T23:47:12.779Z,4.87
2018-05-02T23:49:38.625Z,4.43
2018-05-02T23:52:04.274Z,5.67
2018-05-02T23:54:30.250Z,4.50
2018-05-02T23:56:55.809Z,4.30
2018-05-02T23:59:21.520Z,4.97
